sensor_id;sensor_type;location;lat;lon;timestamp;P1;durP1;ratioP1;P2;durP2;ratioP2
75768;SDS011;64379;48.888;8.330;2023-04-25T00:00:50;5.82;;;2.10;;
75768;SDS011;64379;48.888;8.330;2023-04-25T00:03:17;5.72;;;2.00;;
75768;SDS011;64379;48.888;8.330;2023-04-25T00:05:43;5.30;;;2.35;;
75768;SDS011;64379;48.888;8.330;2023-04-25T00:08:09;5.25;;;2.10;;
75768;SDS011;64379;48.888;8.330;2023-04-25T00:10:34;5.95;;;2.15;;
75768;SDS011;64379;48.888;8.330;2023-04-25T00:13:00;4.63;;;2.17;;
75768;SDS011;64379;48.888;8.330;2023-04-25T00:15:28;6.57;;;2.20;;
75768;SDS011;64379;48.888;8.330;2023-04-25T00:17:55;5.93;;;2.40;;
75768;SDS011;64379;48.888;8.330;2023-04-25T00:20:21;5.68;;;2.22;;
75768;SDS011;64379;48.888;8.330;2023-04-25T00:22:48;5.65;;;2.22;;
75768;SDS011;64379;48.888;8.330;2023-04-25T00:25:14;5.55;;;2.40;;
75768;SDS011;64379;48.888;8.330;2023-04-25T00:27:40;5.32;;;2.42;;
75768;SDS011;64379;48.888;8.330;2023-04-25T00:30:06;6.18;;;2.58;;
75768;SDS011;64379;48.888;8.330;2023-04-25T00:32:33;6.13;;;2.53;;
75768;SDS011;64379;48.888;8.330;2023-04-25T00:34:58;6.10;;;2.53;;
75768;SDS011;64379;48.888;8.330;2023-04-25T00:37:24;6.30;;;2.55;;
75768;SDS011;64379;48.888;8.330;2023-04-25T00:39:50;5.13;;;2.50;;
75768;SDS011;64379;48.888;8.330;2023-04-25T00:42:18;7.72;;;2.40;;
75768;SDS011;64379;48.888;8.330;2023-04-25T00:44:44;5.15;;;2.30;;
75768;SDS011;64379;48.888;8.330;2023-04-25T00:47:10;4.35;;;2.30;;
75768;SDS011;64379;48.888;8.330;2023-04-25T00:49:36;6.75;;;2.97;;
75768;SDS011;64379;48.888;8.330;2023-04-25T00:52:01;6.13;;;2.70;;
75768;SDS011;64379;48.888;8.330;2023-04-25T00:54:27;5.53;;;2.25;;
75768;SDS011;64379;48.888;8.330;2023-04-25T00:56:53;6.03;;;3.03;;
75768;SDS011;64379;48.888;8.330;2023-04-25T00:59:19;8.32;;;2.50;;
75768;SDS011;64379;48.888;8.330;2023-04-25T01:01:45;5.70;;;2.33;;
75768;SDS011;64379;48.888;8.330;2023-04-25T01:04:11;5.47;;;2.30;;
75768;SDS011;64379;48.888;8.330;2023-04-25T01:06:37;5.47;;;2.60;;
75768;SDS011;64379;48.888;8.330;2023-04-25T01:09:03;5.40;;;2.53;;
75768;SDS011;64379;48.888;8.330;2023-04-25T01:11:30;5.40;;;2.45;;
75768;SDS011;64379;48.888;8.330;2023-04-25T01:13:55;5.47;;;2.70;;
75768;SDS011;64379;48.888;8.330;2023-04-25T01:16:21;4.80;;;2.33;;
75768;SDS011;64379;48.888;8.330;2023-04-25T01:18:48;6.43;;;2.40;;
75768;SDS011;64379;48.888;8.330;2023-04-25T01:21:15;5.25;;;2.50;;
75768;SDS011;64379;48.888;8.330;2023-04-25T01:23:41;6.80;;;2.40;;
75768;SDS011;64379;48.888;8.330;2023-04-25T01:26:10;5.07;;;2.17;;
75768;SDS011;64379;48.888;8.330;2023-04-25T01:28:37;5.85;;;2.50;;
75768;SDS011;64379;48.888;8.330;2023-04-25T01:31:06;5.65;;;2.42;;
75768;SDS011;64379;48.888;8.330;2023-04-25T01:33:31;5.25;;;2.50;;
75768;SDS011;64379;48.888;8.330;2023-04-25T01:35:57;6.85;;;2.33;;
75768;SDS011;64379;48.888;8.330;2023-04-25T01:38:23;5.35;;;2.40;;
75768;SDS011;64379;48.888;8.330;2023-04-25T01:40:49;6.43;;;2.55;;
75768;SDS011;64379;48.888;8.330;2023-04-25T01:43:16;4.90;;;2.40;;
75768;SDS011;64379;48.888;8.330;2023-04-25T01:45:42;5.93;;;2.67;;
75768;SDS011;64379;48.888;8.330;2023-04-25T01:48:08;7.10;;;2.53;;
75768;SDS011;64379;48.888;8.330;2023-04-25T01:50:34;5.40;;;2.60;;
75768;SDS011;64379;48.888;8.330;2023-04-25T01:53:00;5.38;;;2.60;;
75768;SDS011;64379;48.888;8.330;2023-04-25T01:55:27;5.90;;;2.60;;
75768;SDS011;64379;48.888;8.330;2023-04-25T01:57:53;8.70;;;2.58;;
75768;SDS011;64379;48.888;8.330;2023-04-25T02:00:18;7.70;;;2.72;;
75768;SDS011;64379;48.888;8.330;2023-04-25T02:02:44;6.28;;;2.67;;
75768;SDS011;64379;48.888;8.330;2023-04-25T02:05:10;8.35;;;2.78;;
75768;SDS011;64379;48.888;8.330;2023-04-25T02:07:36;5.72;;;2.60;;
75768;SDS011;64379;48.888;8.330;2023-04-25T02:10:02;6.00;;;2.55;;
75768;SDS011;64379;48.888;8.330;2023-04-25T02:12:28;6.32;;;2.40;;
75768;SDS011;64379;48.888;8.330;2023-04-25T02:14:54;6.63;;;2.72;;
75768;SDS011;64379;48.888;8.330;2023-04-25T02:17:19;6.93;;;2.65;;
75768;SDS011;64379;48.888;8.330;2023-04-25T02:19:46;5.90;;;2.67;;
75768;SDS011;64379;48.888;8.330;2023-04-25T02:22:12;7.20;;;2.65;;
75768;SDS011;64379;48.888;8.330;2023-04-25T02:24:38;4.68;;;2.38;;
75768;SDS011;64379;48.888;8.330;2023-04-25T02:27:03;5.60;;;2.60;;
75768;SDS011;64379;48.888;8.330;2023-04-25T02:29:29;5.95;;;2.55;;
75768;SDS011;64379;48.888;8.330;2023-04-25T02:31:55;5.40;;;2.55;;
75768;SDS011;64379;48.888;8.330;2023-04-25T02:34:20;6.90;;;2.55;;
75768;SDS011;64379;48.888;8.330;2023-04-25T02:36:47;7.80;;;2.80;;
75768;SDS011;64379;48.888;8.330;2023-04-25T02:39:13;6.57;;;2.70;;
75768;SDS011;64379;48.888;8.330;2023-04-25T02:41:39;5.43;;;2.80;;
75768;SDS011;64379;48.888;8.330;2023-04-25T02:44:04;5.68;;;2.60;;
75768;SDS011;64379;48.888;8.330;2023-04-25T02:46:30;5.97;;;2.70;;
75768;SDS011;64379;48.888;8.330;2023-04-25T02:48:55;6.55;;;2.67;;
75768;SDS011;64379;48.888;8.330;2023-04-25T02:51:21;5.45;;;2.60;;
75768;SDS011;64379;48.888;8.330;2023-04-25T02:53:47;5.53;;;2.67;;
75768;SDS011;64379;48.888;8.330;2023-04-25T02:56:12;5.97;;;2.58;;
75768;SDS011;64379;48.888;8.330;2023-04-25T02:58:38;5.50;;;2.85;;
75768;SDS011;64379;48.888;8.330;2023-04-25T03:01:03;5.28;;;2.65;;
75768;SDS011;64379;48.888;8.330;2023-04-25T03:03:29;7.13;;;2.85;;
75768;SDS011;64379;48.888;8.330;2023-04-25T03:05:55;5.55;;;2.47;;
75768;SDS011;64379;48.888;8.330;2023-04-25T03:08:20;6.07;;;2.60;;
75768;SDS011;64379;48.888;8.330;2023-04-25T03:10:46;8.90;;;2.92;;
75768;SDS011;64379;48.888;8.330;2023-04-25T03:13:11;5.22;;;2.47;;
75768;SDS011;64379;48.888;8.330;2023-04-25T03:15:37;8.50;;;2.28;;
75768;SDS011;64379;48.888;8.330;2023-04-25T03:18:03;5.13;;;2.50;;
75768;SDS011;64379;48.888;8.330;2023-04-25T03:20:29;5.80;;;2.47;;
75768;SDS011;64379;48.888;8.330;2023-04-25T03:22:55;6.88;;;2.88;;
75768;SDS011;64379;48.888;8.330;2023-04-25T03:25:21;6.18;;;2.40;;
75768;SDS011;64379;48.888;8.330;2023-04-25T03:27:46;5.70;;;2.22;;
75768;SDS011;64379;48.888;8.330;2023-04-25T03:30:12;6.35;;;2.60;;
75768;SDS011;64379;48.888;8.330;2023-04-25T03:32:38;5.13;;;2.42;;
75768;SDS011;64379;48.888;8.330;2023-04-25T03:35:03;5.93;;;2.30;;
75768;SDS011;64379;48.888;8.330;2023-04-25T03:37:30;5.85;;;2.40;;
75768;SDS011;64379;48.888;8.330;2023-04-25T03:39:56;5.13;;;2.45;;
75768;SDS011;64379;48.888;8.330;2023-04-25T03:42:21;5.60;;;2.58;;
75768;SDS011;64379;48.888;8.330;2023-04-25T03:44:48;6.00;;;2.80;;
75768;SDS011;64379;48.888;8.330;2023-04-25T03:47:14;6.15;;;2.58;;
75768;SDS011;64379;48.888;8.330;2023-04-25T03:49:41;3.95;;;2.05;;
75768;SDS011;64379;48.888;8.330;2023-04-25T03:52:06;5.03;;;2.45;;
75768;SDS011;64379;48.888;8.330;2023-04-25T03:54:32;6.40;;;3.08;;
75768;SDS011;64379;48.888;8.330;2023-04-25T03:56:58;7.78;;;3.33;;
75768;SDS011;64379;48.888;8.330;2023-04-25T03:59:23;7.38;;;2.72;;
75768;SDS011;64379;48.888;8.330;2023-04-25T04:01:51;7.88;;;3.03;;
75768;SDS011;64379;48.888;8.330;2023-04-25T04:04:17;6.03;;;2.72;;
75768;SDS011;64379;48.888;8.330;2023-04-25T04:06:42;5.90;;;2.70;;
75768;SDS011;64379;48.888;8.330;2023-04-25T04:09:08;6.18;;;2.85;;
75768;SDS011;64379;48.888;8.330;2023-04-25T04:11:36;7.03;;;2.80;;
75768;SDS011;64379;48.888;8.330;2023-04-25T04:14:03;6.22;;;2.92;;
75768;SDS011;64379;48.888;8.330;2023-04-25T04:16:31;6.55;;;2.80;;
75768;SDS011;64379;48.888;8.330;2023-04-25T04:18:57;4.97;;;2.60;;
75768;SDS011;64379;48.888;8.330;2023-04-25T04:21:23;7.88;;;2.70;;
75768;SDS011;64379;48.888;8.330;2023-04-25T04:23:48;6.20;;;3.10;;
75768;SDS011;64379;48.888;8.330;2023-04-25T04:26:14;7.82;;;3.22;;
75768;SDS011;64379;48.888;8.330;2023-04-25T04:28:43;8.95;;;3.28;;
75768;SDS011;64379;48.888;8.330;2023-04-25T04:31:09;6.57;;;3.10;;
75768;SDS011;64379;48.888;8.330;2023-04-25T04:33:35;8.35;;;3.03;;
75768;SDS011;64379;48.888;8.330;2023-04-25T04:36:02;5.70;;;3.00;;
75768;SDS011;64379;48.888;8.330;2023-04-25T04:38:28;6.53;;;3.03;;
75768;SDS011;64379;48.888;8.330;2023-04-25T04:40:54;7.45;;;3.25;;
75768;SDS011;64379;48.888;8.330;2023-04-25T04:43:20;5.65;;;3.05;;
75768;SDS011;64379;48.888;8.330;2023-04-25T04:45:47;6.78;;;3.03;;
75768;SDS011;64379;48.888;8.330;2023-04-25T04:48:14;6.30;;;3.28;;
75768;SDS011;64379;48.888;8.330;2023-04-25T04:50:40;6.13;;;3.25;;
75768;SDS011;64379;48.888;8.330;2023-04-25T04:53:06;5.75;;;3.00;;
75768;SDS011;64379;48.888;8.330;2023-04-25T04:55:32;5.95;;;3.17;;
75768;SDS011;64379;48.888;8.330;2023-04-25T04:57:57;5.80;;;3.13;;
75768;SDS011;64379;48.888;8.330;2023-04-25T05:00:23;6.53;;;3.17;;
75768;SDS011;64379;48.888;8.330;2023-04-25T05:02:48;7.88;;;3.20;;
75768;SDS011;64379;48.888;8.330;2023-04-25T05:05:14;6.55;;;3.20;;
75768;SDS011;64379;48.888;8.330;2023-04-25T05:07:40;8.13;;;3.47;;
75768;SDS011;64379;48.888;8.330;2023-04-25T05:10:05;6.20;;;2.95;;
75768;SDS011;64379;48.888;8.330;2023-04-25T05:12:31;8.10;;;3.35;;
75768;SDS011;64379;48.888;8.330;2023-04-25T05:14:57;9.05;;;3.60;;
75768;SDS011;64379;48.888;8.330;2023-04-25T05:17:23;9.23;;;3.38;;
75768;SDS011;64379;48.888;8.330;2023-04-25T05:19:48;7.88;;;3.47;;
75768;SDS011;64379;48.888;8.330;2023-04-25T05:22:14;10.85;;;4.10;;
75768;SDS011;64379;48.888;8.330;2023-04-25T05:24:40;6.57;;;2.78;;
75768;SDS011;64379;48.888;8.330;2023-04-25T05:27:05;7.38;;;2.80;;
75768;SDS011;64379;48.888;8.330;2023-04-25T05:29:31;5.40;;;2.47;;
75768;SDS011;64379;48.888;8.330;2023-04-25T05:31:56;6.28;;;2.67;;
75768;SDS011;64379;48.888;8.330;2023-04-25T05:34:22;5.07;;;2.50;;
75768;SDS011;64379;48.888;8.330;2023-04-25T05:36:48;7.28;;;2.92;;
75768;SDS011;64379;48.888;8.330;2023-04-25T05:39:17;6.50;;;2.95;;
75768;SDS011;64379;48.888;8.330;2023-04-25T05:41:42;7.40;;;2.70;;
75768;SDS011;64379;48.888;8.330;2023-04-25T05:44:08;6.72;;;2.72;;
75768;SDS011;64379;48.888;8.330;2023-04-25T05:46:34;5.70;;;2.83;;
75768;SDS011;64379;48.888;8.330;2023-04-25T05:49:00;7.25;;;3.00;;
75768;SDS011;64379;48.888;8.330;2023-04-25T05:51:25;5.70;;;2.50;;
75768;SDS011;64379;48.888;8.330;2023-04-25T05:53:52;6.63;;;2.58;;
75768;SDS011;64379;48.888;8.330;2023-04-25T05:56:18;5.72;;;2.70;;
75768;SDS011;64379;48.888;8.330;2023-04-25T05:58:44;5.70;;;2.60;;
75768;SDS011;64379;48.888;8.330;2023-04-25T06:01:09;6.65;;;2.40;;
75768;SDS011;64379;48.888;8.330;2023-04-25T06:03:35;7.70;;;3.17;;
75768;SDS011;64379;48.888;8.330;2023-04-25T06:06:02;4.88;;;2.42;;
75768;SDS011;64379;48.888;8.330;2023-04-25T06:08:28;5.88;;;3.00;;
75768;SDS011;64379;48.888;8.330;2023-04-25T06:10:54;6.88;;;3.20;;
75768;SDS011;64379;48.888;8.330;2023-04-25T06:13:19;5.80;;;2.85;;
75768;SDS011;64379;48.888;8.330;2023-04-25T06:15:45;7.93;;;3.33;;
75768;SDS011;64379;48.888;8.330;2023-04-25T06:18:11;6.68;;;2.90;;
75768;SDS011;64379;48.888;8.330;2023-04-25T06:20:36;5.65;;;2.83;;
75768;SDS011;64379;48.888;8.330;2023-04-25T06:23:02;7.10;;;3.08;;
75768;SDS011;64379;48.888;8.330;2023-04-25T06:25:28;7.25;;;2.83;;
75768;SDS011;64379;48.888;8.330;2023-04-25T06:27:53;5.80;;;2.67;;
75768;SDS011;64379;48.888;8.330;2023-04-25T06:30:19;6.10;;;2.53;;
75768;SDS011;64379;48.888;8.330;2023-04-25T06:32:48;7.32;;;3.47;;
75768;SDS011;64379;48.888;8.330;2023-04-25T06:35:13;7.03;;;3.42;;
75768;SDS011;64379;48.888;8.330;2023-04-25T06:37:39;5.25;;;2.35;;
75768;SDS011;64379;48.888;8.330;2023-04-25T06:40:05;6.68;;;2.70;;
75768;SDS011;64379;48.888;8.330;2023-04-25T06:42:31;8.15;;;3.03;;
75768;SDS011;64379;48.888;8.330;2023-04-25T06:44:57;6.63;;;3.30;;
75768;SDS011;64379;48.888;8.330;2023-04-25T06:47:22;9.10;;;3.30;;
75768;SDS011;64379;48.888;8.330;2023-04-25T06:49:48;8.30;;;3.33;;
75768;SDS011;64379;48.888;8.330;2023-04-25T06:52:14;7.63;;;2.92;;
75768;SDS011;64379;48.888;8.330;2023-04-25T06:54:40;5.95;;;2.83;;
75768;SDS011;64379;48.888;8.330;2023-04-25T06:57:05;8.68;;;3.90;;
75768;SDS011;64379;48.888;8.330;2023-04-25T06:59:31;7.40;;;2.53;;
75768;SDS011;64379;48.888;8.330;2023-04-25T07:01:57;7.05;;;3.33;;
75768;SDS011;64379;48.888;8.330;2023-04-25T07:04:23;7.47;;;3.33;;
75768;SDS011;64379;48.888;8.330;2023-04-25T07:06:48;6.95;;;3.42;;
75768;SDS011;64379;48.888;8.330;2023-04-25T07:09:14;6.97;;;3.42;;
75768;SDS011;64379;48.888;8.330;2023-04-25T07:11:40;6.45;;;3.10;;
75768;SDS011;64379;48.888;8.330;2023-04-25T07:14:05;6.45;;;3.40;;
75768;SDS011;64379;48.888;8.330;2023-04-25T07:16:31;9.80;;;3.88;;
75768;SDS011;64379;48.888;8.330;2023-04-25T07:18:57;7.90;;;3.88;;
75768;SDS011;64379;48.888;8.330;2023-04-25T07:21:22;14.65;;;4.05;;
75768;SDS011;64379;48.888;8.330;2023-04-25T07:23:48;8.65;;;3.88;;
75768;SDS011;64379;48.888;8.330;2023-04-25T07:26:13;7.90;;;4.18;;
75768;SDS011;64379;48.888;8.330;2023-04-25T07:28:39;9.43;;;4.15;;
75768;SDS011;64379;48.888;8.330;2023-04-25T07:31:05;6.85;;;3.72;;
75768;SDS011;64379;48.888;8.330;2023-04-25T07:33:31;7.78;;;3.92;;
75768;SDS011;64379;48.888;8.330;2023-04-25T07:35:56;7.80;;;4.35;;
75768;SDS011;64379;48.888;8.330;2023-04-25T07:38:22;8.38;;;4.13;;
75768;SDS011;64379;48.888;8.330;2023-04-25T07:40:48;9.35;;;4.05;;
75768;SDS011;64379;48.888;8.330;2023-04-25T07:43:14;8.27;;;3.85;;
75768;SDS011;64379;48.888;8.330;2023-04-25T07:45:45;8.15;;;4.38;;
75768;SDS011;64379;48.888;8.330;2023-04-25T07:48:11;9.20;;;4.80;;
75768;SDS011;64379;48.888;8.330;2023-04-25T07:50:41;8.40;;;4.75;;
75768;SDS011;64379;48.888;8.330;2023-04-25T07:53:06;10.27;;;4.97;;
75768;SDS011;64379;48.888;8.330;2023-04-25T07:55:32;9.55;;;5.00;;
75768;SDS011;64379;48.888;8.330;2023-04-25T07:57:58;11.75;;;5.63;;
75768;SDS011;64379;48.888;8.330;2023-04-25T08:00:23;14.48;;;6.57;;
75768;SDS011;64379;48.888;8.330;2023-04-25T08:02:49;10.88;;;4.80;;
75768;SDS011;64379;48.888;8.330;2023-04-25T08:05:15;12.90;;;5.65;;
75768;SDS011;64379;48.888;8.330;2023-04-25T08:07:41;9.52;;;4.60;;
75768;SDS011;64379;48.888;8.330;2023-04-25T08:10:08;8.95;;;4.75;;
75768;SDS011;64379;48.888;8.330;2023-04-25T08:12:34;8.85;;;4.97;;
75768;SDS011;64379;48.888;8.330;2023-04-25T08:15:00;9.40;;;4.75;;
75768;SDS011;64379;48.888;8.330;2023-04-25T08:17:25;9.80;;;4.70;;
75768;SDS011;64379;48.888;8.330;2023-04-25T08:19:51;8.75;;;4.35;;
75768;SDS011;64379;48.888;8.330;2023-04-25T08:22:16;7.68;;;4.30;;
75768;SDS011;64379;48.888;8.330;2023-04-25T08:24:42;7.90;;;3.80;;
75768;SDS011;64379;48.888;8.330;2023-04-25T08:27:08;8.85;;;4.18;;
75768;SDS011;64379;48.888;8.330;2023-04-25T08:29:34;9.13;;;4.75;;
75768;SDS011;64379;48.888;8.330;2023-04-25T08:31:59;8.65;;;4.40;;
75768;SDS011;64379;48.888;8.330;2023-04-25T08:34:25;10.30;;;5.35;;
75768;SDS011;64379;48.888;8.330;2023-04-25T08:36:51;8.82;;;5.10;;
75768;SDS011;64379;48.888;8.330;2023-04-25T08:39:17;11.00;;;5.28;;
75768;SDS011;64379;48.888;8.330;2023-04-25T08:41:43;8.63;;;4.65;;
75768;SDS011;64379;48.888;8.330;2023-04-25T08:44:10;9.52;;;4.65;;
75768;SDS011;64379;48.888;8.330;2023-04-25T08:46:38;7.13;;;3.67;;
75768;SDS011;64379;48.888;8.330;2023-04-25T08:49:05;10.18;;;5.22;;
75768;SDS011;64379;48.888;8.330;2023-04-25T08:51:34;8.23;;;4.05;;
75768;SDS011;64379;48.888;8.330;2023-04-25T08:54:10;8.13;;;4.10;;
75768;SDS011;64379;48.888;8.330;2023-04-25T08:56:44;7.60;;;4.13;;
75768;SDS011;64379;48.888;8.330;2023-04-25T08:59:12;9.13;;;4.22;;
75768;SDS011;64379;48.888;8.330;2023-04-25T09:01:38;6.72;;;3.78;;
75768;SDS011;64379;48.888;8.330;2023-04-25T09:04:04;9.65;;;4.82;;
75768;SDS011;64379;48.888;8.330;2023-04-25T09:06:30;8.68;;;4.40;;
75768;SDS011;64379;48.888;8.330;2023-04-25T09:09:05;6.70;;;3.60;;
75768;SDS011;64379;48.888;8.330;2023-04-25T09:11:32;7.90;;;3.55;;
75768;SDS011;64379;48.888;8.330;2023-04-25T09:14:15;7.03;;;3.83;;
75768;SDS011;64379;48.888;8.330;2023-04-25T09:19:24;10.63;;;4.10;;
75768;SDS011;64379;48.888;8.330;2023-04-25T09:21:58;9.85;;;3.63;;
75768;SDS011;64379;48.888;8.330;2023-04-25T09:27:06;9.57;;;4.47;;
75768;SDS011;64379;48.888;8.330;2023-04-25T09:29:34;8.73;;;4.30;;
75768;SDS011;64379;48.888;8.330;2023-04-25T09:34:47;7.60;;;3.72;;
75768;SDS011;64379;48.888;8.330;2023-04-25T09:37:18;7.47;;;4.15;;
75768;SDS011;64379;48.888;8.330;2023-04-25T09:39:48;8.13;;;3.75;;
75768;SDS011;64379;48.888;8.330;2023-04-25T09:42:16;6.50;;;3.50;;
75768;SDS011;64379;48.888;8.330;2023-04-25T09:44:43;6.82;;;2.95;;
75768;SDS011;64379;48.888;8.330;2023-04-25T09:47:10;5.57;;;2.95;;
75768;SDS011;64379;48.888;8.330;2023-04-25T09:49:38;6.05;;;2.80;;
75768;SDS011;64379;48.888;8.330;2023-04-25T09:52:06;6.53;;;3.10;;
75768;SDS011;64379;48.888;8.330;2023-04-25T09:54:32;5.30;;;2.55;;
75768;SDS011;64379;48.888;8.330;2023-04-25T09:56:57;4.75;;;2.38;;
75768;SDS011;64379;48.888;8.330;2023-04-25T09:59:35;3.65;;;1.73;;
75768;SDS011;64379;48.888;8.330;2023-04-25T10:02:07;4.80;;;2.17;;
75768;SDS011;64379;48.888;8.330;2023-04-25T10:04:34;8.05;;;2.50;;
75768;SDS011;64379;48.888;8.330;2023-04-25T10:07:01;3.58;;;1.70;;
75768;SDS011;64379;48.888;8.330;2023-04-25T10:09:32;4.75;;;2.45;;
75768;SDS011;64379;48.888;8.330;2023-04-25T10:12:00;4.13;;;2.20;;
75768;SDS011;64379;48.888;8.330;2023-04-25T10:14:28;6.15;;;2.42;;
75768;SDS011;64379;48.888;8.330;2023-04-25T10:16:56;4.55;;;2.20;;
75768;SDS011;64379;48.888;8.330;2023-04-25T10:19:23;5.32;;;2.40;;
75768;SDS011;64379;48.888;8.330;2023-04-25T10:21:51;6.55;;;2.50;;
75768;SDS011;64379;48.888;8.330;2023-04-25T10:24:23;4.85;;;2.13;;
75768;SDS011;64379;48.888;8.330;2023-04-25T10:26:49;6.57;;;2.50;;
75768;SDS011;64379;48.888;8.330;2023-04-25T10:29:22;4.75;;;2.30;;
75768;SDS011;64379;48.888;8.330;2023-04-25T10:31:51;4.53;;;2.45;;
75768;SDS011;64379;48.888;8.330;2023-04-25T10:34:17;5.65;;;2.28;;
75768;SDS011;64379;48.888;8.330;2023-04-25T10:36:51;5.43;;;2.45;;
75768;SDS011;64379;48.888;8.330;2023-04-25T10:39:24;5.93;;;2.47;;
75768;SDS011;64379;48.888;8.330;2023-04-25T10:41:52;6.82;;;2.63;;
75768;SDS011;64379;48.888;8.330;2023-04-25T10:44:22;7.75;;;3.80;;
75768;SDS011;64379;48.888;8.330;2023-04-25T10:46:50;6.40;;;2.58;;
75768;SDS011;64379;48.888;8.330;2023-04-25T10:49:37;8.93;;;3.40;;
75768;SDS011;64379;48.888;8.330;2023-04-25T10:52:12;7.07;;;3.42;;
75768;SDS011;64379;48.888;8.330;2023-04-25T10:54:56;8.50;;;4.97;;
75768;SDS011;64379;48.888;8.330;2023-04-25T10:57:26;9.63;;;4.90;;
75768;SDS011;64379;48.888;8.330;2023-04-25T10:59:54;14.27;;;5.10;;
75768;SDS011;64379;48.888;8.330;2023-04-25T11:02:24;8.50;;;4.35;;
75768;SDS011;64379;48.888;8.330;2023-04-25T11:04:53;9.20;;;4.47;;
75768;SDS011;64379;48.888;8.330;2023-04-25T11:09:53;8.00;;;4.03;;
75768;SDS011;64379;48.888;8.330;2023-04-25T11:12:19;7.15;;;3.47;;
75768;SDS011;64379;48.888;8.330;2023-04-25T11:14:45;5.50;;;2.78;;
75768;SDS011;64379;48.888;8.330;2023-04-25T11:17:10;5.43;;;2.53;;
75768;SDS011;64379;48.888;8.330;2023-04-25T11:19:36;4.72;;;2.13;;
75768;SDS011;64379;48.888;8.330;2023-04-25T11:22:02;4.68;;;2.30;;
75768;SDS011;64379;48.888;8.330;2023-04-25T11:24:32;3.92;;;2.05;;
75768;SDS011;64379;48.888;8.330;2023-04-25T11:27:02;3.67;;;1.70;;
75768;SDS011;64379;48.888;8.330;2023-04-25T11:29:32;3.13;;;1.58;;
75768;SDS011;64379;48.888;8.330;2023-04-25T11:31:59;4.90;;;1.90;;
75768;SDS011;64379;48.888;8.330;2023-04-25T11:34:26;3.22;;;1.70;;
75768;SDS011;64379;48.888;8.330;2023-04-25T11:36:53;4.72;;;2.00;;
75768;SDS011;64379;48.888;8.330;2023-04-25T11:39:19;4.53;;;1.90;;
75768;SDS011;64379;48.888;8.330;2023-04-25T11:41:46;4.22;;;1.80;;
75768;SDS011;64379;48.888;8.330;2023-04-25T11:44:11;3.78;;;1.80;;
75768;SDS011;64379;48.888;8.330;2023-04-25T11:46:40;4.18;;;1.83;;
75768;SDS011;64379;48.888;8.330;2023-04-25T11:49:05;3.30;;;1.70;;
75768;SDS011;64379;48.888;8.330;2023-04-25T11:51:37;4.65;;;2.00;;
75768;SDS011;64379;48.888;8.330;2023-04-25T11:54:04;4.63;;;2.10;;
75768;SDS011;64379;48.888;8.330;2023-04-25T11:56:30;4.07;;;2.13;;
75768;SDS011;64379;48.888;8.330;2023-04-25T11:59:00;5.20;;;2.28;;
75768;SDS011;64379;48.888;8.330;2023-04-25T12:01:31;5.90;;;2.80;;
75768;SDS011;64379;48.888;8.330;2023-04-25T12:03:58;5.20;;;2.42;;
75768;SDS011;64379;48.888;8.330;2023-04-25T12:06:36;4.93;;;2.63;;
75768;SDS011;64379;48.888;8.330;2023-04-25T12:09:10;5.85;;;2.60;;
75768;SDS011;64379;48.888;8.330;2023-04-25T12:11:44;6.72;;;2.80;;
75768;SDS011;64379;48.888;8.330;2023-04-25T12:14:12;4.90;;;2.55;;
75768;SDS011;64379;48.888;8.330;2023-04-25T12:16:46;4.47;;;2.40;;
75768;SDS011;64379;48.888;8.330;2023-04-25T12:19:15;5.50;;;2.53;;
75768;SDS011;64379;48.888;8.330;2023-04-25T12:21:42;5.82;;;2.90;;
75768;SDS011;64379;48.888;8.330;2023-04-25T12:29:26;6.10;;;3.00;;
75768;SDS011;64379;48.888;8.330;2023-04-25T12:31:53;6.60;;;3.00;;
75768;SDS011;64379;48.888;8.330;2023-04-25T12:34:20;6.45;;;3.13;;
75768;SDS011;64379;48.888;8.330;2023-04-25T12:36:47;5.70;;;3.03;;
75768;SDS011;64379;48.888;8.330;2023-04-25T12:39:16;6.88;;;3.30;;
75768;SDS011;64379;48.888;8.330;2023-04-25T12:41:50;7.20;;;3.40;;
75768;SDS011;64379;48.888;8.330;2023-04-25T12:44:18;7.80;;;3.10;;
75768;SDS011;64379;48.888;8.330;2023-04-25T12:46:45;7.55;;;4.10;;
75768;SDS011;64379;48.888;8.330;2023-04-25T12:49:10;8.45;;;3.72;;
75768;SDS011;64379;48.888;8.330;2023-04-25T12:51:36;8.13;;;3.72;;
75768;SDS011;64379;48.888;8.330;2023-04-25T12:54:03;7.80;;;3.92;;
75768;SDS011;64379;48.888;8.330;2023-04-25T12:56:30;10.07;;;4.45;;
75768;SDS011;64379;48.888;8.330;2023-04-25T12:58:56;8.70;;;4.30;;
75768;SDS011;64379;48.888;8.330;2023-04-25T13:01:22;9.15;;;4.28;;
75768;SDS011;64379;48.888;8.330;2023-04-25T13:03:48;8.35;;;4.00;;
75768;SDS011;64379;48.888;8.330;2023-04-25T13:06:17;11.82;;;4.70;;
75768;SDS011;64379;48.888;8.330;2023-04-25T13:08:43;8.30;;;4.47;;
75768;SDS011;64379;48.888;8.330;2023-04-25T13:11:09;11.52;;;4.57;;
75768;SDS011;64379;48.888;8.330;2023-04-25T13:13:35;9.05;;;3.92;;
75768;SDS011;64379;48.888;8.330;2023-04-25T13:16:01;9.63;;;4.55;;
75768;SDS011;64379;48.888;8.330;2023-04-25T13:18:28;7.18;;;3.05;;
75768;SDS011;64379;48.888;8.330;2023-04-25T13:20:54;9.35;;;3.83;;
75768;SDS011;64379;48.888;8.330;2023-04-25T13:23:20;7.57;;;3.47;;
75768;SDS011;64379;48.888;8.330;2023-04-25T13:25:46;7.25;;;3.22;;
75768;SDS011;64379;48.888;8.330;2023-04-25T13:28:12;8.43;;;3.45;;
75768;SDS011;64379;48.888;8.330;2023-04-25T13:30:38;6.55;;;2.33;;
75768;SDS011;64379;48.888;8.330;2023-04-25T13:33:04;6.13;;;2.67;;
75768;SDS011;64379;48.888;8.330;2023-04-25T13:35:31;5.20;;;2.15;;
75768;SDS011;64379;48.888;8.330;2023-04-25T13:37:57;4.45;;;1.95;;
75768;SDS011;64379;48.888;8.330;2023-04-25T13:40:23;3.20;;;1.45;;
75768;SDS011;64379;48.888;8.330;2023-04-25T13:42:49;2.50;;;1.30;;
75768;SDS011;64379;48.888;8.330;2023-04-25T13:45:16;2.40;;;1.40;;
75768;SDS011;64379;48.888;8.330;2023-04-25T13:47:41;2.70;;;1.30;;
75768;SDS011;64379;48.888;8.330;2023-04-25T13:50:07;2.17;;;1.23;;
75768;SDS011;64379;48.888;8.330;2023-04-25T13:52:33;3.03;;;1.33;;
75768;SDS011;64379;48.888;8.330;2023-04-25T13:54:59;2.55;;;1.20;;
75768;SDS011;64379;48.888;8.330;2023-04-25T13:57:25;2.50;;;1.02;;
75768;SDS011;64379;48.888;8.330;2023-04-25T13:59:51;1.80;;;1.20;;
75768;SDS011;64379;48.888;8.330;2023-04-25T14:02:17;2.25;;;1.30;;
75768;SDS011;64379;48.888;8.330;2023-04-25T14:04:43;2.83;;;1.40;;
75768;SDS011;64379;48.888;8.330;2023-04-25T14:07:09;2.63;;;1.25;;
75768;SDS011;64379;48.888;8.330;2023-04-25T14:09:36;2.65;;;1.30;;
75768;SDS011;64379;48.888;8.330;2023-04-25T14:12:01;3.47;;;1.70;;
75768;SDS011;64379;48.888;8.330;2023-04-25T14:14:27;3.33;;;1.55;;
75768;SDS011;64379;48.888;8.330;2023-04-25T14:16:53;4.97;;;1.50;;
75768;SDS011;64379;48.888;8.330;2023-04-25T14:19:19;3.05;;;1.40;;
75768;SDS011;64379;48.888;8.330;2023-04-25T14:21:48;5.15;;;1.50;;
75768;SDS011;64379;48.888;8.330;2023-04-25T14:24:14;3.55;;;1.50;;
75768;SDS011;64379;48.888;8.330;2023-04-25T14:26:40;3.30;;;1.55;;
75768;SDS011;64379;48.888;8.330;2023-04-25T14:29:07;5.43;;;2.00;;
75768;SDS011;64379;48.888;8.330;2023-04-25T14:31:37;4.00;;;1.77;;
75768;SDS011;64379;48.888;8.330;2023-04-25T14:34:04;6.20;;;1.92;;
75768;SDS011;64379;48.888;8.330;2023-04-25T14:36:29;4.43;;;1.70;;
75768;SDS011;64379;48.888;8.330;2023-04-25T14:38:56;4.63;;;2.10;;
75768;SDS011;64379;48.888;8.330;2023-04-25T14:41:22;4.68;;;1.80;;
75768;SDS011;64379;48.888;8.330;2023-04-25T14:43:48;3.75;;;1.90;;
75768;SDS011;64379;48.888;8.330;2023-04-25T14:46:13;6.78;;;1.85;;
75768;SDS011;64379;48.888;8.330;2023-04-25T14:48:39;4.57;;;1.90;;
75768;SDS011;64379;48.888;8.330;2023-04-25T14:51:05;4.32;;;1.70;;
75768;SDS011;64379;48.888;8.330;2023-04-25T14:53:31;4.22;;;1.70;;
75768;SDS011;64379;48.888;8.330;2023-04-25T14:55:57;5.05;;;2.10;;
75768;SDS011;64379;48.888;8.330;2023-04-25T14:58:22;5.95;;;1.83;;
75768;SDS011;64379;48.888;8.330;2023-04-25T15:00:48;4.38;;;1.73;;